sensor_id;sensor_type;location;lat;lon;timestamp;pressure;altitude;pressure_sealevel;temperature;humidity
2563;BME280;1291;51.420;6.970;2023-02-18T00:00:17;100620.41;;;39.95;10.35
2563;BME280;1291;51.420;6.970;2023-02-18T00:02:43;100605.09;;;40.85;10.38
2563;BME280;1291;51.420;6.970;2023-02-18T00:05:09;100613.44;;;40.93;10.54
2563;BME280;1291;51.420;6.970;2023-02-18T00:07:36;100620.66;;;42.00;9.62
2563;BME280;1291;51.420;6.970;2023-02-18T00:10:03;100611.81;;;42.99;8.56
2563;BME280;1291;51.420;6.970;2023-02-18T00:12:30;100618.00;;;43.37;8.66
2563;BME280;1291;51.420;6.970;2023-02-18T00:14:56;100612.59;;;42.08;9.36
2563;BME280;1291;51.420;6.970;2023-02-18T00:17:21;100605.81;;;43.13;8.65
2563;BME280;1291;51.420;6.970;2023-02-18T00:19:46;100607.13;;;42.45;8.99
2563;BME280;1291;51.420;6.970;2023-02-18T00:22:12;100604.72;;;43.94;7.88
2563;BME280;1291;51.420;6.970;2023-02-18T00:24:37;100598.09;;;42.45;9.09
2563;BME280;1291;51.420;6.970;2023-02-18T00:27:03;100598.28;;;42.79;8.94
2563;BME280;1291;51.420;6.970;2023-02-18T00:29:28;100594.34;;;42.46;8.73
2563;BME280;1291;51.420;6.970;2023-02-18T00:31:54;100592.78;;;40.90;10.15
2563;BME280;1291;51.420;6.970;2023-02-18T00:34:19;100595.25;;;43.80;8.01
2563;BME280;1291;51.420;6.970;2023-02-18T00:36:46;100582.31;;;44.33;7.86
2563;BME280;1291;51.420;6.970;2023-02-18T00:39:12;100578.78;;;42.74;9.10
2563;BME280;1291;51.420;6.970;2023-02-18T00:41:37;100583.34;;;43.45;8.50
2563;BME280;1291;51.420;6.970;2023-02-18T00:44:04;100581.81;;;40.51;10.26
2563;BME280;1291;51.420;6.970;2023-02-18T00:46:29;100587.34;;;41.96;9.57
2563;BME280;1291;51.420;6.970;2023-02-18T00:48:55;100584.63;;;41.00;9.77
2563;BME280;1291;51.420;6.970;2023-02-18T00:51:21;100574.47;;;42.26;9.37
2563;BME280;1291;51.420;6.970;2023-02-18T00:53:46;100563.31;;;43.89;8.14
2563;BME280;1291;51.420;6.970;2023-02-18T00:56:13;100560.69;;;43.09;8.72
2563;BME280;1291;51.420;6.970;2023-02-18T00:58:38;100562.34;;;42.38;9.41
2563;BME280;1291;51.420;6.970;2023-02-18T01:01:05;100559.75;;;40.35;10.73
2563;BME280;1291;51.420;6.970;2023-02-18T01:03:30;100558.09;;;41.32;10.15
2563;BME280;1291;51.420;6.970;2023-02-18T01:05:56;100553.09;;;40.78;10.67
2563;BME280;1291;51.420;6.970;2023-02-18T01:08:21;100554.22;;;40.16;10.98
2563;BME280;1291;51.420;6.970;2023-02-18T01:10:49;100539.38;;;41.76;9.87
2563;BME280;1291;51.420;6.970;2023-02-18T01:13:16;100541.75;;;41.12;10.48
2563;BME280;1291;51.420;6.970;2023-02-18T01:15:42;100537.31;;;41.30;9.89
2563;BME280;1291;51.420;6.970;2023-02-18T01:18:08;100542.94;;;40.30;10.79
2563;BME280;1291;51.420;6.970;2023-02-18T01:20:35;100547.28;;;42.06;9.62
2563;BME280;1291;51.420;6.970;2023-02-18T01:23:02;100543.63;;;41.02;10.70
2563;BME280;1291;51.420;6.970;2023-02-18T01:25:27;100545.81;;;39.88;11.21
2563;BME280;1291;51.420;6.970;2023-02-18T01:27:53;100545.47;;;42.71;8.96
2563;BME280;1291;51.420;6.970;2023-02-18T01:30:18;100554.06;;;41.45;10.01
2563;BME280;1291;51.420;6.970;2023-02-18T01:32:45;100531.19;;;42.31;9.35
2563;BME280;1291;51.420;6.970;2023-02-18T01:35:16;100534.34;;;42.08;9.48
2563;BME280;1291;51.420;6.970;2023-02-18T01:37:42;100525.72;;;41.28;10.12
2563;BME280;1291;51.420;6.970;2023-02-18T01:40:11;100536.97;;;42.92;8.99
2563;BME280;1291;51.420;6.970;2023-02-18T01:42:37;100524.69;;;42.14;9.48
2563;BME280;1291;51.420;6.970;2023-02-18T01:47:53;100517.59;;;38.51;12.26
2563;BME280;1291;51.420;6.970;2023-02-18T01:50:18;100512.41;;;40.86;10.31
2563;BME280;1291;51.420;6.970;2023-02-18T01:52:43;100509.09;;;38.88;11.91
2563;BME280;1291;51.420;6.970;2023-02-18T01:55:09;100513.53;;;42.71;9.31
2563;BME280;1291;51.420;6.970;2023-02-18T01:57:36;100519.47;;;42.03;9.62
2563;BME280;1291;51.420;6.970;2023-02-18T02:00:06;100523.47;;;43.60;8.31
2563;BME280;1291;51.420;6.970;2023-02-18T02:02:35;100515.53;;;42.33;9.26
2563;BME280;1291;51.420;6.970;2023-02-18T02:05:02;100513.34;;;41.24;10.11
2563;BME280;1291;51.420;6.970;2023-02-18T02:07:28;100509.75;;;40.36;10.61
2563;BME280;1291;51.420;6.970;2023-02-18T02:09:55;100507.47;;;40.51;10.47
2563;BME280;1291;51.420;6.970;2023-02-18T02:15:26;100510.63;;;43.87;8.04
2563;BME280;1291;51.420;6.970;2023-02-18T02:31:46;100488.16;;;40.54;10.38
2563;BME280;1291;51.420;6.970;2023-02-18T02:37:25;100482.19;;;41.84;9.55
2563;BME280;1291;51.420;6.970;2023-02-18T02:40:20;100486.00;;;40.58;10.57
2563;BME280;1291;51.420;6.970;2023-02-18T02:48:27;100470.56;;;39.98;11.13
2563;BME280;1291;51.420;6.970;2023-02-18T02:53:46;100473.13;;;42.75;8.93
2563;BME280;1291;51.420;6.970;2023-02-18T02:56:18;100476.97;;;41.06;10.25
2563;BME280;1291;51.420;6.970;2023-02-18T02:58:47;100471.66;;;42.62;9.04
2563;BME280;1291;51.420;6.970;2023-02-18T03:04:58;100456.91;;;41.07;10.03
2563;BME280;1291;51.420;6.970;2023-02-18T03:07:35;100464.91;;;42.03;9.56
2563;BME280;1291;51.420;6.970;2023-02-18T03:13:11;100437.13;;;41.05;10.73
2563;BME280;1291;51.420;6.970;2023-02-18T03:15:48;100434.13;;;41.45;10.16
2563;BME280;1291;51.420;6.970;2023-02-18T03:20:50;100425.97;;;42.46;9.44
2563;BME280;1291;51.420;6.970;2023-02-18T03:23:25;100416.81;;;42.20;9.61
2563;BME280;1291;51.420;6.970;2023-02-18T03:25:52;100413.56;;;41.88;10.04
2563;BME280;1291;51.420;6.970;2023-02-18T03:28:22;100414.44;;;41.24;10.23
2563;BME280;1291;51.420;6.970;2023-02-18T03:30:59;100412.38;;;42.37;9.59
2563;BME280;1291;51.420;6.970;2023-02-18T03:33:31;100412.88;;;42.76;9.27
2563;BME280;1291;51.420;6.970;2023-02-18T03:35:58;100398.81;;;43.76;8.86
2563;BME280;1291;51.420;6.970;2023-02-18T03:40:49;100399.47;;;40.61;10.95
2563;BME280;1291;51.420;6.970;2023-02-18T03:43:15;100398.22;;;41.87;10.04
2563;BME280;1291;51.420;6.970;2023-02-18T03:45:40;100389.13;;;38.41;12.27
2563;BME280;1291;51.420;6.970;2023-02-18T03:48:06;100385.91;;;41.46;10.48
2563;BME280;1291;51.420;6.970;2023-02-18T03:50:32;100390.56;;;39.50;11.66
2563;BME280;1291;51.420;6.970;2023-02-18T03:52:57;100387.94;;;43.23;9.20
2563;BME280;1291;51.420;6.970;2023-02-18T03:55:23;100387.47;;;40.44;10.62
2563;BME280;1291;51.420;6.970;2023-02-18T03:57:48;100378.44;;;41.10;10.55
2563;BME280;1291;51.420;6.970;2023-02-18T04:00:13;100391.66;;;41.98;9.95
2563;BME280;1291;51.420;6.970;2023-02-18T04:02:40;100377.88;;;41.17;10.40
2563;BME280;1291;51.420;6.970;2023-02-18T04:05:05;100374.78;;;43.19;9.22
2563;BME280;1291;51.420;6.970;2023-02-18T04:07:31;100382.53;;;43.32;9.01
2563;BME280;1291;51.420;6.970;2023-02-18T04:09:56;100372.63;;;39.07;12.37
2563;BME280;1291;51.420;6.970;2023-02-18T04:12:22;100358.63;;;40.61;11.15
2563;BME280;1291;51.420;6.970;2023-02-18T04:14:47;100356.34;;;41.51;10.19
2563;BME280;1291;51.420;6.970;2023-02-18T04:17:12;100363.72;;;39.36;12.35
2563;BME280;1291;51.420;6.970;2023-02-18T04:19:38;100356.81;;;41.74;10.28
2563;BME280;1291;51.420;6.970;2023-02-18T04:22:03;100363.72;;;41.03;10.89
2563;BME280;1291;51.420;6.970;2023-02-18T04:24:28;100357.78;;;40.12;11.80
2563;BME280;1291;51.420;6.970;2023-02-18T04:26:54;100353.91;;;41.20;10.66
2563;BME280;1291;51.420;6.970;2023-02-18T04:29:19;100345.97;;;41.64;10.30
2563;BME280;1291;51.420;6.970;2023-02-18T04:31:44;100350.59;;;40.60;11.17
2563;BME280;1291;51.420;6.970;2023-02-18T04:34:10;100340.53;;;40.99;10.82
2563;BME280;1291;51.420;6.970;2023-02-18T04:36:35;100346.22;;;41.06;10.66
2563;BME280;1291;51.420;6.970;2023-02-18T04:39:00;100336.28;;;40.58;10.75
2563;BME280;1291;51.420;6.970;2023-02-18T04:41:26;100330.91;;;39.89;11.68
2563;BME280;1291;51.420;6.970;2023-02-18T04:43:51;100319.88;;;39.41;12.27
2563;BME280;1291;51.420;6.970;2023-02-18T04:46:17;100315.22;;;42.70;9.66
2563;BME280;1291;51.420;6.970;2023-02-18T04:48:42;100326.53;;;41.49;10.14
2563;BME280;1291;51.420;6.970;2023-02-18T04:51:07;100323.16;;;40.14;11.54
2563;BME280;1291;51.420;6.970;2023-02-18T04:53:33;100319.84;;;42.07;10.03
2563;BME280;1291;51.420;6.970;2023-02-18T04:55:58;100317.47;;;41.31;10.62
2563;BME280;1291;51.420;6.970;2023-02-18T04:58:25;100320.66;;;39.22;11.92
2563;BME280;1291;51.420;6.970;2023-02-18T05:00:50;100312.22;;;39.85;11.21
2563;BME280;1291;51.420;6.970;2023-02-18T05:03:18;100307.97;;;37.30;13.46
2563;BME280;1291;51.420;6.970;2023-02-18T05:05:43;100305.31;;;40.88;10.96
2563;BME280;1291;51.420;6.970;2023-02-18T05:08:10;100298.63;;;38.84;12.23
2563;BME280;1291;51.420;6.970;2023-02-18T05:10:37;100298.41;;;39.38;12.43
2563;BME280;1291;51.420;6.970;2023-02-18T05:13:03;100298.72;;;37.44;13.48
2563;BME280;1291;51.420;6.970;2023-02-18T05:15:28;100297.63;;;39.66;11.62
2563;BME280;1291;51.420;6.970;2023-02-18T05:17:53;100294.13;;;41.74;10.00
2563;BME280;1291;51.420;6.970;2023-02-18T05:20:19;100285.03;;;39.65;11.59
2563;BME280;1291;51.420;6.970;2023-02-18T05:22:44;100285.94;;;41.74;10.35
2563;BME280;1291;51.420;6.970;2023-02-18T05:25:11;100281.66;;;40.88;10.90
2563;BME280;1291;51.420;6.970;2023-02-18T05:27:36;100281.22;;;39.27;12.51
2563;BME280;1291;51.420;6.970;2023-02-18T05:30:02;100270.63;;;39.24;12.19
2563;BME280;1291;51.420;6.970;2023-02-18T05:32:28;100266.16;;;39.54;12.13
2563;BME280;1291;51.420;6.970;2023-02-18T05:34:53;100270.03;;;38.80;12.34
2563;BME280;1291;51.420;6.970;2023-02-18T05:37:18;100259.66;;;41.00;10.73
2563;BME280;1291;51.420;6.970;2023-02-18T05:39:44;100256.75;;;40.83;11.05
2563;BME280;1291;51.420;6.970;2023-02-18T05:42:10;100252.06;;;41.31;10.22
2563;BME280;1291;51.420;6.970;2023-02-18T05:44:36;100257.88;;;39.05;12.36
2563;BME280;1291;51.420;6.970;2023-02-18T05:47:07;100251.22;;;39.39;11.80
2563;BME280;1291;51.420;6.970;2023-02-18T05:49:33;100245.16;;;41.91;10.17
2563;BME280;1291;51.420;6.970;2023-02-18T05:51:59;100252.09;;;37.84;13.31
2563;BME280;1291;51.420;6.970;2023-02-18T05:54:25;100232.09;;;40.08;11.84
2563;BME280;1291;51.420;6.970;2023-02-18T05:56:51;100222.53;;;39.94;11.72
2563;BME280;1291;51.420;6.970;2023-02-18T05:59:17;100223.91;;;40.38;11.46
2563;BME280;1291;51.420;6.970;2023-02-18T06:01:43;100233.53;;;40.79;10.59
2563;BME280;1291;51.420;6.970;2023-02-18T06:04:09;100229.41;;;38.06;13.18
2563;BME280;1291;51.420;6.970;2023-02-18T06:06:34;100226.09;;;40.05;11.30
2563;BME280;1291;51.420;6.970;2023-02-18T06:09:00;100225.53;;;38.71;12.79
2563;BME280;1291;51.420;6.970;2023-02-18T06:11:26;100221.47;;;39.37;12.17
2563;BME280;1291;51.420;6.970;2023-02-18T06:13:51;100226.84;;;40.64;11.12
2563;BME280;1291;51.420;6.970;2023-02-18T06:16:16;100217.69;;;39.88;11.31
2563;BME280;1291;51.420;6.970;2023-02-18T06:18:42;100240.16;;;38.80;12.36
2563;BME280;1291;51.420;6.970;2023-02-18T06:21:07;100223.34;;;39.27;11.81
2563;BME280;1291;51.420;6.970;2023-02-18T06:23:32;100232.53;;;38.43;12.97
2563;BME280;1291;51.420;6.970;2023-02-18T06:25:58;100226.75;;;39.19;11.90
2563;BME280;1291;51.420;6.970;2023-02-18T06:28:23;100223.78;;;40.39;10.78
2563;BME280;1291;51.420;6.970;2023-02-18T06:30:48;100216.69;;;40.09;11.25
2563;BME280;1291;51.420;6.970;2023-02-18T06:33:14;100217.66;;;39.59;11.45
2563;BME280;1291;51.420;6.970;2023-02-18T06:35:39;100227.06;;;38.95;12.29
2563;BME280;1291;51.420;6.970;2023-02-18T06:38:05;100215.13;;;38.67;12.59
2563;BME280;1291;51.420;6.970;2023-02-18T06:40:30;100220.91;;;38.52;12.54
2563;BME280;1291;51.420;6.970;2023-02-18T06:42:56;100227.56;;;40.09;11.11
2563;BME280;1291;51.420;6.970;2023-02-18T06:45:21;100231.81;;;41.52;10.57
2563;BME280;1291;51.420;6.970;2023-02-18T06:47:47;100225.94;;;41.74;10.23
2563;BME280;1291;51.420;6.970;2023-02-18T06:50:12;100235.25;;;39.55;11.81
2563;BME280;1291;51.420;6.970;2023-02-18T06:52:38;100230.59;;;39.26;12.06
2563;BME280;1291;51.420;6.970;2023-02-18T06:55:05;100234.41;;;39.45;12.06
2563;BME280;1291;51.420;6.970;2023-02-18T06:57:30;100243.19;;;40.64;10.91
2563;BME280;1291;51.420;6.970;2023-02-18T06:59:56;100239.47;;;39.28;12.17
2563;BME280;1291;51.420;6.970;2023-02-18T07:02:21;100237.97;;;40.33;11.14
2563;BME280;1291;51.420;6.970;2023-02-18T07:04:46;100227.16;;;37.90;12.71
2563;BME280;1291;51.420;6.970;2023-02-18T07:07:12;100224.59;;;38.82;12.12
2563;BME280;1291;51.420;6.970;2023-02-18T07:09:40;100218.00;;;38.23;12.80
2563;BME280;1291;51.420;6.970;2023-02-18T07:12:06;100222.47;;;37.92;13.19
2563;BME280;1291;51.420;6.970;2023-02-18T07:14:31;100217.97;;;38.65;12.33
2563;BME280;1291;51.420;6.970;2023-02-18T07:16:56;100219.00;;;37.25;13.52
2563;BME280;1291;51.420;6.970;2023-02-18T07:19:22;100207.19;;;39.35;11.84
2563;BME280;1291;51.420;6.970;2023-02-18T07:21:47;100223.69;;;39.03;11.98
2563;BME280;1291;51.420;6.970;2023-02-18T07:24:12;100218.19;;;40.31;10.74
2563;BME280;1291;51.420;6.970;2023-02-18T07:26:38;100227.25;;;36.56;13.55
2563;BME280;1291;51.420;6.970;2023-02-18T07:29:03;100226.75;;;38.27;12.51
2563;BME280;1291;51.420;6.970;2023-02-18T07:31:28;100242.34;;;37.37;12.86
2563;BME280;1291;51.420;6.970;2023-02-18T07:33:54;100239.78;;;38.94;11.63
2563;BME280;1291;51.420;6.970;2023-02-18T07:36:19;100243.44;;;38.32;12.42
2563;BME280;1291;51.420;6.970;2023-02-18T07:38:44;100229.50;;;39.39;11.16
2563;BME280;1291;51.420;6.970;2023-02-18T07:41:19;100233.84;;;40.09;10.90
2563;BME280;1291;51.420;6.970;2023-02-18T07:43:45;100239.78;;;40.52;10.79
2563;BME280;1291;51.420;6.970;2023-02-18T07:46:11;100250.19;;;41.49;9.56
2563;BME280;1291;51.420;6.970;2023-02-18T07:48:36;100245.69;;;39.50;11.41
2563;BME280;1291;51.420;6.970;2023-02-18T07:51:05;100250.94;;;38.61;11.84
2563;BME280;1291;51.420;6.970;2023-02-18T07:53:31;100255.69;;;40.94;9.97
2563;BME280;1291;51.420;6.970;2023-02-18T07:56:00;100256.31;;;39.22;11.58
2563;BME280;1291;51.420;6.970;2023-02-18T07:58:28;100240.94;;;39.32;11.71
2563;BME280;1291;51.420;6.970;2023-02-18T08:00:55;100243.13;;;36.94;13.15
2563;BME280;1291;51.420;6.970;2023-02-18T08:03:27;100245.72;;;36.96;13.29
2563;BME280;1291;51.420;6.970;2023-02-18T08:05:53;100249.56;;;39.57;11.27
2563;BME280;1291;51.420;6.970;2023-02-18T08:08:22;100272.72;;;40.96;10.24
2563;BME280;1291;51.420;6.970;2023-02-18T08:10:48;100268.81;;;37.34;12.88
2563;BME280;1291;51.420;6.970;2023-02-18T08:13:14;100275.13;;;37.34;13.01
2563;BME280;1291;51.420;6.970;2023-02-18T08:15:39;100262.72;;;39.02;11.35
2563;BME280;1291;51.420;6.970;2023-02-18T08:18:06;100275.88;;;38.75;11.86
2563;BME280;1291;51.420;6.970;2023-02-18T08:20:38;100273.25;;;37.90;12.62
2563;BME280;1291;51.420;6.970;2023-02-18T08:23:04;100268.63;;;38.13;11.95
2563;BME280;1291;51.420;6.970;2023-02-18T08:25:29;100274.00;;;37.81;12.48
2563;BME280;1291;51.420;6.970;2023-02-18T08:27:55;100261.88;;;40.39;10.46
2563;BME280;1291;51.420;6.970;2023-02-18T08:30:20;100283.59;;;38.38;12.38
2563;BME280;1291;51.420;6.970;2023-02-18T08:32:48;100272.06;;;39.98;11.00
2563;BME280;1291;51.420;6.970;2023-02-18T08:35:17;100278.03;;;39.82;11.06
2563;BME280;1291;51.420;6.970;2023-02-18T08:37:43;100263.50;;;38.41;12.33
2563;BME280;1291;51.420;6.970;2023-02-18T08:40:09;100276.09;;;38.21;12.13
2563;BME280;1291;51.420;6.970;2023-02-18T08:42:34;100271.28;;;39.57;11.14
2563;BME280;1291;51.420;6.970;2023-02-18T08:44:59;100271.28;;;39.47;11.12
2563;BME280;1291;51.420;6.970;2023-02-18T08:47:25;100273.53;;;38.71;11.75
2563;BME280;1291;51.420;6.970;2023-02-18T08:49:52;100278.66;;;38.22;12.04
2563;BME280;1291;51.420;6.970;2023-02-18T08:52:17;100271.25;;;36.11;13.65
2563;BME280;1291;51.420;6.970;2023-02-18T08:54:43;100269.31;;;38.36;11.92
2563;BME280;1291;51.420;6.970;2023-02-18T08:57:09;100264.44;;;38.72;10.94
2563;BME280;1291;51.420;6.970;2023-02-18T08:59:34;100268.06;;;38.61;11.29
2563;BME280;1291;51.420;6.970;2023-02-18T09:02:00;100266.63;;;39.19;10.85
2563;BME280;1291;51.420;6.970;2023-02-18T09:04:25;100274.63;;;39.20;10.96
2563;BME280;1291;51.420;6.970;2023-02-18T09:06:50;100255.25;;;38.42;11.42
2563;BME280;1291;51.420;6.970;2023-02-18T09:09:16;100267.00;;;39.45;10.79
2563;BME280;1291;51.420;6.970;2023-02-18T09:11:42;100279.16;;;38.79;10.91
2563;BME280;1291;51.420;6.970;2023-02-18T09:14:08;100270.88;;;39.81;10.35
2563;BME280;1291;51.420;6.970;2023-02-18T09:16:33;100264.19;;;37.79;11.53
2563;BME280;1291;51.420;6.970;2023-02-18T09:18:59;100268.22;;;38.38;11.19
2563;BME280;1291;51.420;6.970;2023-02-18T09:21:25;100259.84;;;38.51;10.87
2563;BME280;1291;51.420;6.970;2023-02-18T09:23:51;100265.88;;;37.37;12.18
2563;BME280;1291;51.420;6.970;2023-02-18T09:26:19;100268.19;;;38.90;10.71
2563;BME280;1291;51.420;6.970;2023-02-18T09:28:49;100275.16;;;37.67;11.92
2563;BME280;1291;51.420;6.970;2023-02-18T09:31:17;100271.78;;;38.18;10.91
2563;BME280;1291;51.420;6.970;2023-02-18T09:33:46;100271.03;;;39.70;10.14
2563;BME280;1291;51.420;6.970;2023-02-18T09:36:11;100258.34;;;38.89;10.79
2563;BME280;1291;51.420;6.970;2023-02-18T09:38:37;100264.63;;;37.85;11.43
2563;BME280;1291;51.420;6.970;2023-02-18T09:41:07;100260.06;;;39.21;10.65
2563;BME280;1291;51.420;6.970;2023-02-18T09:43:45;100256.50;;;40.57;9.66
2563;BME280;1291;51.420;6.970;2023-02-18T09:46:53;100244.00;;;38.26;11.25
2563;BME280;1291;51.420;6.970;2023-02-18T09:49:26;100258.28;;;37.19;11.46
2563;BME280;1291;51.420;6.970;2023-02-18T09:52:05;100253.13;;;40.45;9.02
2563;BME280;1291;51.420;6.970;2023-02-18T09:54:31;100261.88;;;39.81;9.90
2563;BME280;1291;51.420;6.970;2023-02-18T09:56:56;100264.31;;;38.52;11.03
2563;BME280;1291;51.420;6.970;2023-02-18T09:59:25;100264.69;;;40.47;9.52
2563;BME280;1291;51.420;6.970;2023-02-18T10:01:52;100268.06;;;37.66;11.76
2563;BME280;1291;51.420;6.970;2023-02-18T10:06:49;100255.25;;;41.26;8.72
2563;BME280;1291;51.420;6.970;2023-02-18T10:09:24;100242.63;;;39.33;9.84
2563;BME280;1291;51.420;6.970;2023-02-18T10:11:55;100239.53;;;38.46;10.98
2563;BME280;1291;51.420;6.970;2023-02-18T10:14:21;100247.72;;;40.06;9.74
2563;BME280;1291;51.420;6.970;2023-02-18T10:16:48;100253.31;;;38.33;11.32
2563;BME280;1291;51.420;6.970;2023-02-18T10:19:25;100253.00;;;41.12;8.98
2563;BME280;1291;51.420;6.970;2023-02-18T10:21:52;100258.66;;;38.96;10.84
2563;BME280;1291;51.420;6.970;2023-02-18T10:26:51;100262.31;;;38.12;11.01
2563;BME280;1291;51.420;6.970;2023-02-18T10:29:18;100261.19;;;42.56;8.23
2563;BME280;1291;51.420;6.970;2023-02-18T10:42:49;100272.66;;;38.91;10.84
2563;BME280;1291;51.420;6.970;2023-02-18T10:50:48;100282.03;;;39.18;10.91
2563;BME280;1291;51.420;6.970;2023-02-18T10:53:33;100287.19;;;38.17;11.33
2563;BME280;1291;51.420;6.970;2023-02-18T10:56:00;100282.97;;;38.25;11.45
2563;BME280;1291;51.420;6.970;2023-02-18T10:58:31;100292.25;;;37.78;11.61
2563;BME280;1291;51.420;6.970;2023-02-18T11:01:00;100285.19;;;40.42;10.13
2563;BME280;1291;51.420;6.970;2023-02-18T11:03:50;100293.25;;;39.34;10.90
2563;BME280;1291;51.420;6.970;2023-02-18T11:06:30;100301.63;;;37.74;11.81
2563;BME280;1291;51.420;6.970;2023-02-18T11:08:57;100294.38;;;40.02;10.40
2563;BME280;1291;51.420;6.970;2023-02-18T11:13:58;100302.59;;;38.80;11.23
2563;BME280;1291;51.420;6.970;2023-02-18T11:19:04;100301.41;;;38.10;11.81
2563;BME280;1291;51.420;6.970;2023-02-18T11:21:34;100308.56;;;39.05;11.07
2563;BME280;1291;51.420;6.970;2023-02-18T11:24:11;100301.34;;;39.85;10.74
2563;BME280;1291;51.420;6.970;2023-02-18T11:26:40;100308.34;;;38.56;11.35
2563;BME280;1291;51.420;6.970;2023-02-18T11:29:22;100295.44;;;37.84;12.42
2563;BME280;1291;51.420;6.970;2023-02-18T11:31:50;100276.91;;;40.14;10.37
2563;BME280;1291;51.420;6.970;2023-02-18T11:34:21;100292.31;;;39.14;10.91
2563;BME280;1291;51.420;6.970;2023-02-18T11:36:49;100285.66;;;39.19;11.34
2563;BME280;1291;51.420;6.970;2023-02-18T11:39:27;100281.31;;;39.66;11.07
2563;BME280;1291;51.420;6.970;2023-02-18T11:42:04;100295.88;;;40.63;10.12
2563;BME280;1291;51.420;6.970;2023-02-18T11:44:41;100304.97;;;38.10;12.42
2563;BME280;1291;51.420;6.970;2023-02-18T11:49:38;100297.84;;;41.18;9.83
2563;BME280;1291;51.420;6.970;2023-02-18T11:52:12;100286.78;;;39.86;10.80
2563;BME280;1291;51.420;6.970;2023-02-18T11:54:39;100300.53;;;39.94;10.81
2563;BME280;1291;51.420;6.970;2023-02-18T11:57:09;100292.25;;;40.05;10.53
2563;BME280;1291;51.420;6.970;2023-02-18T11:59:37;100290.44;;;38.00;12.21
2563;BME280;1291;51.420;6.970;2023-02-18T12:04:50;100290.78;;;40.50;10.12
2563;BME280;1291;51.420;6.970;2023-02-18T12:07:24;100303.13;;;37.67;12.63
2563;BME280;1291;51.420;6.970;2023-02-18T12:09:55;100289.53;;;40.35;10.79
2563;BME280;1291;51.420;6.970;2023-02-18T12:12:30;100293.03;;;39.57;11.25
2563;BME280;1291;51.420;6.970;2023-02-18T12:14:57;100283.63;;;40.39;10.42
2563;BME280;1291;51.420;6.970;2023-02-18T12:20:23;100282.22;;;40.35;10.20
2563;BME280;1291;51.420;6.970;2023-02-18T12:23:07;100289.66;;;38.93;11.47
2563;BME280;1291;51.420;6.970;2023-02-18T12:25:45;100297.69;;;40.05;10.80
2563;BME280;1291;51.420;6.970;2023-02-18T12:28:51;100290.53;;;42.10;9.12
2563;BME280;1291;51.420;6.970;2023-02-18T12:31:35;100293.06;;;39.77;11.21
2563;BME280;1291;51.420;6.970;2023-02-18T12:34:32;100289.66;;;41.73;9.66
2563;BME280;1291;51.420;6.970;2023-02-18T12:48:23;100283.34;;;40.42;10.78
2563;BME280;1291;51.420;6.970;2023-02-18T12:51:17;100284.34;;;40.41;10.64
2563;BME280;1291;51.420;6.970;2023-02-18T12:56:54;100275.34;;;40.11;10.93
2563;BME280;1291;51.420;6.970;2023-02-18T12:59:33;100282.66;;;38.07;12.27
2563;BME280;1291;51.420;6.970;2023-02-18T13:04:59;100282.88;;;38.78;11.60
2563;BME280;1291;51.420;6.970;2023-02-18T13:10:33;100273.34;;;40.13;11.37
2563;BME280;1291;51.420;6.970;2023-02-18T13:13:21;100270.16;;;40.28;10.60
2563;BME280;1291;51.420;6.970;2023-02-18T13:18:47;100268.63;;;40.16;11.09
2563;BME280;1291;51.420;6.970;2023-02-18T13:21:16;100277.88;;;40.52;10.36
2563;BME280;1291;51.420;6.970;2023-02-18T13:23:51;100273.91;;;40.94;10.21
2563;BME280;1291;51.420;6.970;2023-02-18T13:26:17;100276.19;;;40.31;10.75
2563;BME280;1291;51.420;6.970;2023-02-18T13:28:50;100273.88;;;39.49;11.63
2563;BME280;1291;51.420;6.970;2023-02-18T13:31:34;100273.13;;;40.64;10.75
2563;BME280;1291;51.420;6.970;2023-02-18T13:34:04;100277.59;;;42.12;9.40
2563;BME280;1291;51.420;6.970;2023-02-18T13:39:23;100273.94;;;39.38;11.75
2563;BME280;1291;51.420;6.970;2023-02-18T13:41:51;100283.66;;;40.00;11.02
2563;BME280;1291;51.420;6.970;2023-02-18T13:52:51;100285.44;;;41.61;9.84
2563;BME280;1291;51.420;6.970;2023-02-18T13:55:25;100270.38;;;40.83;10.07
2563;BME280;1291;51.420;6.970;2023-02-18T13:57:53;100276.00;;;41.00;10.10
2563;BME280;1291;51.420;6.970;2023-02-18T14:00:22;100274.09;;;41.10;10.10
2563;BME280;1291;51.420;6.970;2023-02-18T14:02:57;100268.53;;;41.75;9.88
2563;BME280;1291;51.420;6.970;2023-02-18T14:05:24;100266.56;;;40.94;10.22
2563;BME280;1291;51.420;6.970;2023-02-18T14:07:51;100262.59;;;39.83;11.23
2563;BME280;1291;51.420;6.970;2023-02-18T14:20:48;100266.59;;;41.22;10.07
2563;BME280;1291;51.420;6.970;2023-02-18T14:33:39;100260.63;;;42.26;9.49
2563;BME280;1291;51.420;6.970;2023-02-18T14:41:56;100267.00;;;41.73;10.02
2563;BME280;1291;51.420;6.970;2023-02-18T14:49:51;100273.88;;;39.68;11.45
2563;BME280;1291;51.420;6.970;2023-02-18T14:55:07;100271.06;;;40.09;11.09
2563;BME280;1291;51.420;6.970;2023-02-18T14:57:44;100274.16;;;41.28;10.38
2563;BME280;1291;51.420;6.970;2023-02-18T15:02:40;100270.75;;;39.13;12.10
2563;BME280;1291;51.420;6.970;2023-02-18T15:05:36;100259.47;;;39.97;11.59
2563;BME280;1291;51.420;6.970;2023-02-18T15:08:05;100266.94;;;40.71;10.86
2563;BME280;1291;51.420;6.970;2023-02-18T15:10:36;100268.94;;;40.69;10.35
2563;BME280;1291;51.420;6.970;2023-02-18T15:13:27;100264.91;;;42.46;9.42
2563;BME280;1291;51.420;6.970;2023-02-18T15:15:58;100271.44;;;41.46;9.98
2563;BME280;1291;51.420;6.970;2023-02-18T15:18:47;100268.75;;;42.62;9.38
2563;BME280;1291;51.420;6.970;2023-02-18T15:21:35;100274.22;;;41.08;10.50
2563;BME280;1291;51.420;6.970;2023-02-18T15:24:07;100274.50;;;42.85;9.23
2563;BME280;1291;51.420;6.970;2023-02-18T15:26:36;100276.69;;;40.64;10.75
2563;BME280;1291;51.420;6.970;2023-02-18T15:29:14;100286.13;;;40.70;10.90
2563;BME280;1291;51.420;6.970;2023-02-18T15:31:41;100284.75;;;41.77;10.02
2563;BME280;1291;51.420;6.970;2023-02-18T15:34:28;100280.47;;;40.34;10.99
2563;BME280;1291;51.420;6.970;2023-02-18T15:36:57;100282.19;;;39.86;11.26
2563;BME280;1291;51.420;6.970;2023-02-18T15:39:24;100281.25;;;41.84;10.01
2563;BME280;1291;51.420;6.970;2023-02-18T15:42:26;100299.97;;;41.52;10.11
2563;BME280;1291;51.420;6.970;2023-02-18T15:45:02;100292.44;;;40.80;10.53
2563;BME280;1291;51.420;6.970;2023-02-18T15:47:29;100292.00;;;40.65;10.97
2563;BME280;1291;51.420;6.970;2023-02-18T15:49:57;100288.47;;;42.30;9.39